METAR Data
IDs: Format: Raw Decoded Include TAF

Data at: 2247 UTC 26 Feb 2020

METAR for:PASD (Sand Point Arpt, AK, US)
Text:PASD 262201Z 31005KT 10SM FEW010 FEW019 BKN060 00/M03 A2957 RMK AO2
Temperature: 0.0°C ( 32°F)
Dewpoint: -3.0°C ( 27°F) [RH = 80%]
Pressure (altimeter):29.57 inches Hg (1001.4 mb)
Winds:from the NW (310 degrees) at 6 MPH (5 knots; 2.6 m/s)
Visibility:10 or more sm (16+ km)
Ceiling:6000 feet AGL
Clouds: few clouds at 1000 feet AGL, few clouds at 1900 feet AGL, broken clouds at 6000 feet AGL
Text:PASD 262156Z 32005KT 10SM FEW010 FEW019 BKN060 00/M03 A2957 RMK AO2 SLP015 T00001028
Temperature: 0.0°C ( 32°F)
Dewpoint: -2.8°C ( 27°F) [RH = 81%]
Pressure (altimeter):29.57 inches Hg (1001.4 mb) [Sea level pressure: 1001.5 mb]
Winds:from the NW (320 degrees) at 6 MPH (5 knots; 2.6 m/s)
Visibility:10 or more sm (16+ km)
Ceiling:6000 feet AGL
Clouds: few clouds at 1000 feet AGL, few clouds at 1900 feet AGL, broken clouds at 6000 feet AGL
Text:PASD 262056Z 29006KT 10SM FEW010 SCT060 BKN120 00/M02 A2955 RMK AO2 SLP010 T00001022 51015
Temperature: 0.0°C ( 32°F)
Dewpoint: -2.2°C ( 28°F) [RH = 85%]
Pressure (altimeter):29.55 inches Hg (1000.8 mb) [Sea level pressure: 1001.0 mb]
Winds:from the WNW (290 degrees) at 7 MPH (6 knots; 3.1 m/s)
Visibility:10 or more sm (16+ km)
Ceiling:12000 feet AGL
Clouds: few clouds at 1000 feet AGL, scattered clouds at 6000 feet AGL, broken clouds at 12000 feet AGL
Text:PASD 262027Z 31007KT 10SM SCT008 SCT019 BKN100 00/M02 A2955 RMK AO2
Temperature: 0.0°C ( 32°F)
Dewpoint: -2.0°C ( 28°F) [RH = 86%]
Pressure (altimeter):29.55 inches Hg (1000.8 mb)
Winds:from the NW (310 degrees) at 8 MPH (7 knots; 3.6 m/s)
Visibility:10 or more sm (16+ km)
Ceiling:10000 feet AGL
Clouds: scattered clouds at 800 feet AGL, scattered clouds at 1900 feet AGL, broken clouds at 10000 feet AGL
Text:PASD 261955Z 31005KT 10SM SCT008 BKN020 BKN120 M01/M02 A2955
Temperature: -1.0°C ( 30°F)
Dewpoint: -2.0°C ( 28°F) [RH = 93%]
Pressure (altimeter):29.55 inches Hg (1000.8 mb)
Winds:from the NW (310 degrees) at 6 MPH (5 knots; 2.6 m/s)
Visibility:10 or more sm (16+ km)
Ceiling:2000 feet AGL
Clouds: scattered clouds at 800 feet AGL, broken clouds at 2000 feet AGL, broken clouds at 12000 feet AGL
Text:PASD 261912Z 32007KT 10SM FEW008 FEW019 BKN110 M01/M02 A2953 RMK AO2
Temperature: -1.0°C ( 30°F)
Dewpoint: -2.0°C ( 28°F) [RH = 93%]
Pressure (altimeter):29.53 inches Hg (1000.1 mb)
Winds:from the NW (320 degrees) at 8 MPH (7 knots; 3.6 m/s)
Visibility:10 or more sm (16+ km)
Ceiling:11000 feet AGL
Clouds: few clouds at 800 feet AGL, few clouds at 1900 feet AGL, broken clouds at 11000 feet AGL
Text:PASD 261909Z 33008KT 10SM FEW008 M01/M02 A2953 RMK AO2
Temperature: -1.0°C ( 30°F)
Dewpoint: -2.0°C ( 28°F) [RH = 93%]
Pressure (altimeter):29.53 inches Hg (1000.1 mb)
Winds:from the NNW (330 degrees) at 9 MPH (8 knots; 4.1 m/s)
Visibility:10 or more sm (16+ km)
Ceiling:at least 12,000 feet AGL
Clouds: few clouds at 800 feet AGL
Text:PASD 261856Z 33006KT 10SM CLR M02/M03 A2952 RMK AO2 SLP000 T10171028
Temperature: -1.7°C ( 29°F)
Dewpoint: -2.8°C ( 27°F) [RH = 92%]
Pressure (altimeter):29.52 inches Hg ( 999.7 mb) [Sea level pressure: 1000.0 mb]
Winds:from the NNW (330 degrees) at 7 MPH (6 knots; 3.1 m/s)
Visibility:10 or more sm (16+ km)
Ceiling:at least 12,000 feet AGL
Clouds:sky clear below 12,000 feet AGL
Text:PASD 261756Z 34003KT 10SM FEW020 SCT050 BKN120 M02/M03 A2951 RMK AO2 SLP995 T10221033 10000 21022 53006
Temperature: -2.2°C ( 28°F)
Dewpoint: -3.3°C ( 26°F) [RH = 92%]
Pressure (altimeter):29.51 inches Hg ( 999.4 mb) [Sea level pressure: 999.5 mb]
Winds:from the NNW (340 degrees) at 3 MPH (3 knots; 1.5 m/s)
Visibility:10 or more sm (16+ km)
Ceiling:12000 feet AGL
Clouds: few clouds at 2000 feet AGL, scattered clouds at 5000 feet AGL, broken clouds at 12000 feet AGL

TAF for:PASD (Sand Point Arpt, AK, US) issued at 1720 UTC 26 Feb 2020
Text:PASD 261720Z 2618/2718 VRB06KT P6SM SCT030 BKN100
Forecast period:1800 UTC 26 February 2020 to 1800 UTC 27 February 2020
Forecast type:FROM: standard forecast or significant change
Winds:variable direction winds at 7 MPH (6 knots; 3.1 m/s)
Visibility:6 or more sm (10+ km)
Ceiling:10000 feet AGL
Clouds: scattered clouds at 3000 feet AGL, broken clouds at 10000 feet AGL